Time;durP1;ratioP1;P1;durP2;ratioP2;P2;SDS_P1;SDS_P2;PMS_P1;PMS_P2;Temp;Humidity;BMP_temperature;BMP_pressure;BME280_temperature;BME280_humidity;BME280_pressure;Samples;Min_cycle;Max_cycle;Signal;HPM_P1;HPM_P2
2022/10/15 00:01:46;;;;;;;11.40;5.50;;;9.10;99.90;;;;;;5034415;28;20197;-85
2022/10/15 00:04:11;;;;;;;10.23;6.00;;;9.10;99.90;;;;;;5065752;28;20194;-85
2022/10/15 00:06:37;;;;;;;18.80;5.70;;;;;;;;;;5028895;28;20245;-85
2022/10/15 00:09:03;;;;;;;12.80;6.77;;;9.10;99.90;;;;;;5045446;28;20179;-85
2022/10/15 00:11:30;;;;;;;15.32;7.93;;;9.00;99.90;;;;;;5029306;28;20223;-85
2022/10/15 00:13:58;;;;;;;14.47;7.33;;;9.00;99.90;;;;;;5054487;28;20190;-85
2022/10/15 00:16:26;;;;;;;19.83;6.80;;;9.00;99.90;;;;;;5040579;28;20193;-84
2022/10/15 00:18:55;;;;;;;9.57;6.27;;;9.00;99.90;;;;;;5065250;28;20179;-85
2022/10/15 00:21:20;;;;;;;19.00;7.67;;;9.00;99.90;;;;;;5048273;28;20259;-85
2022/10/15 00:23:47;;;;;;;10.63;6.00;;;9.00;99.90;;;;;;5033241;28;20187;-86
2022/10/15 00:26:16;;;;;;;11.83;5.77;;;9.00;99.90;;;;;;5046049;28;20180;-85
2022/10/15 00:28:41;;;;;;;9.17;5.47;;;9.00;99.90;;;;;;5056204;28;20175;-85
2022/10/15 00:31:11;;;;;;;13.50;5.87;;;9.10;99.90;;;;;;5045361;28;20542;-85
2022/10/15 00:33:37;;;;;;;9.93;5.20;;;9.10;99.90;;;;;;5055844;28;20603;-85
2022/10/15 00:36:11;;;;;;;16.40;5.00;;;9.10;99.90;;;;;;5044690;28;20275;-85
2022/10/15 00:38:37;;;;;;;13.03;5.83;;;9.20;99.90;;;;;;5066543;28;20624;-85
2022/10/15 00:41:05;;;;;;;14.13;6.13;;;9.20;99.90;;;;;;5067439;28;20187;-86
2022/10/15 00:43:45;;;;;;;12.70;5.90;;;9.30;99.90;;;;;;5055922;28;20275;-86
2022/10/15 00:46:27;;;;;;;13.20;6.90;;;9.30;99.90;;;;;;5046312;28;20175;-85
2022/10/15 00:49:20;;;;;;;12.73;6.23;;;9.30;99.90;;;;;;5065051;28;20230;-86
2022/10/15 00:52:02;;;;;;;12.50;6.22;;;9.30;99.90;;;;;;5066224;28;20183;-85
2022/10/15 00:54:38;;;;;;;14.77;6.30;;;9.30;99.90;;;;;;5065265;28;20547;-86
2022/10/15 00:57:06;;;;;;;16.97;6.77;;;9.30;99.90;;;;;;5043719;28;20202;-86
2022/10/15 00:59:35;;;;;;;13.00;5.80;;;9.30;99.90;;;;;;5071300;28;20632;-86
2022/10/15 01:02:01;;;;;;;11.13;5.77;;;9.30;99.90;;;;;;5039632;28;20188;-86
2022/10/15 01:04:28;;;;;;;14.60;7.57;;;9.30;99.90;;;;;;5037404;28;20245;-85
2022/10/15 01:06:53;;;;;;;11.85;6.18;;;9.30;99.90;;;;;;5027592;28;20188;-85
2022/10/15 01:09:19;;;;;;;10.73;5.97;;;9.30;99.90;;;;;;5059591;28;20662;-85
2022/10/15 01:11:51;;;;;;;16.92;7.75;;;9.30;99.90;;;;;;5050374;28;20196;-85
2022/10/15 01:14:37;;;;;;;10.33;5.53;;;9.30;99.90;;;;;;5053652;28;20270;-85
2022/10/15 01:17:25;;;;;;;16.90;7.63;;;9.30;99.90;;;;;;5035863;28;20179;-85
2022/10/15 01:20:18;;;;;;;10.53;5.33;;;9.40;99.90;;;;;;5053874;28;20217;-85
2022/10/15 01:23:02;;;;;;;10.03;4.83;;;9.40;99.90;;;;;;5053731;28;20176;-84
2022/10/15 01:25:50;;;;;;;10.90;5.37;;;9.50;99.90;;;;;;5035962;28;20202;-85
2022/10/15 01:28:38;;;;;;;8.30;4.93;;;9.50;99.90;;;;;;5053077;28;20221;-85
2022/10/15 01:31:22;;;;;;;14.63;5.22;;;9.50;99.90;;;;;;5053677;28;20605;-85
2022/10/15 01:34:09;;;;;;;8.30;4.83;;;9.50;99.90;;;;;;5053480;28;20199;-85
2022/10/15 01:36:37;;;;;;;8.80;5.30;;;9.60;99.90;;;;;;5053535;28;20168;-85
2022/10/15 01:39:09;;;;;;;10.30;5.47;;;9.60;99.90;;;;;;5035169;28;20271;-85
2022/10/15 01:41:49;;;;;;;7.10;4.70;;;9.60;99.90;;;;;;5035615;28;20195;-85
2022/10/15 01:44:33;;;;;;;8.40;5.38;;;9.60;99.90;;;;;;5035327;28;20180;-86
2022/10/15 01:47:13;;;;;;;11.57;4.63;;;9.70;99.90;;;;;;5035145;28;20258;-87
2022/10/15 01:49:42;;;;;;;10.80;5.37;;;9.70;99.90;;;;;;5035845;28;20190;-85
2022/10/15 01:52:21;;;;;;;12.15;4.90;;;10.00;99.90;;;;;;5034927;28;20230;-86
2022/10/15 01:54:48;;;;;;;6.80;4.10;;;9.70;99.90;;;;;;5035489;28;20194;-85
2022/10/15 01:57:16;;;;;;;10.70;4.72;;;9.70;99.90;;;;;;5034673;28;20189;-85
2022/10/15 01:59:42;;;;;;;11.33;4.97;;;9.70;99.90;;;;;;5053016;28;20188;-85
2022/10/15 02:02:08;;;;;;;13.70;4.43;;;9.80;99.90;;;;;;5054735;28;20201;-85
2022/10/15 02:04:34;;;;;;;8.85;4.22;;;9.80;99.90;;;;;;5022113;28;20179;-85
2022/10/15 02:07:07;;;;;;;7.73;4.40;;;9.80;99.90;;;;;;5054701;28;20179;-88
2022/10/15 02:09:57;;;;;;;11.35;5.95;;;7.10;99.90;;;;;;5054785;28;20183;-86
2022/10/15 02:12:30;;;;;;;11.90;5.80;;;9.80;99.90;;;;;;5017554;28;20222;-86
2022/10/15 02:15:06;;;;;;;11.35;5.60;;;9.70;99.90;;;;;;5060493;28;20190;-86
2022/10/15 02:17:48;;;;;;;13.43;6.30;;;9.80;99.90;;;;;;5054971;28;20224;-86
2022/10/15 02:20:26;;;;;;;12.35;6.05;;;9.80;99.90;;;;;;5054526;28;20182;-85
2022/10/15 02:22:59;;;;;;;12.40;6.20;;;9.80;99.90;;;;;;5072899;28;20187;-85
2022/10/15 02:25:26;;;;;;;16.43;6.37;;;9.80;99.90;;;;;;5054751;28;20651;-85
2022/10/15 02:27:54;;;;;;;10.70;5.35;;;9.80;99.90;;;;;;5066558;28;20307;-86
2022/10/15 02:30:20;;;;;;;9.17;5.17;;;9.90;99.90;;;;;;5053734;28;20184;-85
2022/10/15 02:32:52;;;;;;;11.20;5.10;;;9.70;99.90;;;;;;5038338;28;20301;-85
2022/10/15 02:35:20;;;;;;;12.95;5.05;;;9.70;99.90;;;;;;5072858;28;20178;-85
2022/10/15 02:37:49;;;;;;;11.60;5.47;;;9.70;99.90;;;;;;5037925;28;20195;-86
2022/10/15 02:40:15;;;;;;;7.68;4.25;;;9.70;99.90;;;;;;5072106;28;20175;-85
2022/10/15 02:42:41;;;;;;;12.45;5.45;;;9.70;99.90;;;;;;5038522;28;20585;-85
2022/10/15 02:45:07;;;;;;;9.53;5.33;;;9.70;99.90;;;;;;5038435;28;20218;-85
2022/10/15 02:47:33;;;;;;;9.03;4.77;;;9.70;99.90;;;;;;5054862;28;20234;-85
2022/10/15 02:49:59;;;;;;;8.07;4.17;;;;;;;;;;5054944;28;20236;-85
2022/10/15 02:52:24;;;;;;;8.33;4.20;;;9.70;99.90;;;;;;5025997;28;20220;-85
2022/10/15 02:54:50;;;;;;;9.13;5.00;;;9.70;99.90;;;;;;5044100;28;20202;-85
2022/10/15 02:57:16;;;;;;;8.27;4.20;;;9.70;99.90;;;;;;5072266;28;20179;-84
2022/10/15 02:59:41;;;;;;;9.73;4.90;;;9.70;99.90;;;;;;5054421;28;20233;-85
2022/10/15 03:02:07;;;;;;;7.07;4.07;;;9.70;99.90;;;;;;5054489;28;20183;-86
2022/10/15 03:04:33;;;;;;;10.88;5.10;;;9.70;99.90;;;;;;5054576;28;20594;-85
2022/10/15 03:06:59;;;;;;;11.43;5.93;;;9.70;99.90;;;;;;5038010;28;20274;-85
2022/10/15 03:09:24;;;;;;;12.45;6.22;;;9.70;99.90;;;;;;5041538;28;20643;-85
2022/10/15 03:11:50;;;;;;;8.77;5.47;;;9.60;99.90;;;;;;5024138;28;20541;-85
2022/10/15 03:14:16;;;;;;;10.57;5.03;;;9.60;99.90;;;;;;5052053;28;20651;-86
2022/10/15 03:16:41;;;;;;;7.93;4.75;;;9.60;99.90;;;;;;5041562;28;20186;-86
2022/10/15 03:19:07;;;;;;;9.67;4.90;;;9.60;99.90;;;;;;5058009;28;20179;-86
2022/10/15 03:21:33;;;;;;;8.50;5.17;;;9.60;99.90;;;;;;5025032;28;20183;-85
2022/10/15 03:23:59;;;;;;;12.27;5.53;;;;;;;;;;5041349;28;20179;-85
2022/10/15 03:26:25;;;;;;;11.40;5.70;;;9.60;99.90;;;;;;5055397;28;20180;-85
2022/10/15 03:28:50;;;;;;;12.23;5.73;;;9.60;99.90;;;;;;5029792;28;20191;-85
2022/10/15 03:31:16;;;;;;;16.37;5.93;;;9.60;99.90;;;;;;5029539;28;20191;-85
2022/10/15 03:33:42;;;;;;;12.60;5.23;;;9.50;99.90;;;;;;5023377;28;20222;-84
2022/10/15 03:36:08;;;;;;;10.37;5.37;;;9.50;99.90;;;;;;5037605;28;20175;-84
2022/10/15 03:38:34;;;;;;;9.93;4.90;;;9.50;99.90;;;;;;5037633;28;20184;-84
2022/10/15 03:41:00;;;;;;;12.37;5.17;;;9.40;99.90;;;;;;5037187;28;20180;-85
2022/10/15 03:43:25;;;;;;;13.85;5.78;;;9.40;99.90;;;;;;5037183;28;20195;-85
2022/10/15 03:45:51;;;;;;;8.50;4.70;;;9.30;99.90;;;;;;5037681;28;20267;-84
2022/10/15 03:48:18;;;;;;;8.83;4.60;;;9.30;99.90;;;;;;5056310;28;20246;-85
2022/10/15 03:50:45;;;;;;;12.90;6.17;;;9.20;99.90;;;;;;5055292;28;20671;-85
2022/10/15 03:53:10;;;;;;;15.27;5.33;;;9.20;99.90;;;;;;5057424;28;20663;-85
2022/10/15 03:55:36;;;;;;;9.93;5.00;;;9.10;99.90;;;;;;5074483;28;20186;-85
2022/10/15 03:58:02;;;;;;;18.53;6.13;;;9.10;99.90;;;;;;5057397;28;20183;-84
2022/10/15 04:00:28;;;;;;;13.43;5.60;;;9.10;99.90;;;;;;5056753;28;20183;-84
2022/10/15 04:02:54;;;;;;;15.53;5.87;;;9.10;99.90;;;;;;5041056;28;20179;-85
2022/10/15 04:05:19;;;;;;;13.87;6.20;;;9.10;99.90;;;;;;5023908;28;20671;-85
2022/10/15 04:07:45;;;;;;;11.77;5.90;;;9.10;99.90;;;;;;5023881;28;20201;-85
2022/10/15 04:10:11;;;;;;;11.13;5.37;;;9.20;99.90;;;;;;5048438;28;20700;-85
2022/10/15 04:12:36;;;;;;;10.17;5.70;;;9.10;99.90;;;;;;5039427;28;20218;-87
2022/10/15 04:15:02;;;;;;;12.40;5.50;;;9.20;99.90;;;;;;5037109;28;20555;-86
2022/10/15 04:17:28;;;;;;;13.43;5.53;;;9.20;99.90;;;;;;5054699;28;20643;-85
2022/10/15 04:19:53;;;;;;;9.57;4.60;;;9.20;99.90;;;;;;5056033;28;20229;-85
2022/10/15 04:22:19;;;;;;;8.07;5.20;;;9.20;99.90;;;;;;5053289;28;20188;-85
2022/10/15 04:24:45;;;;;;;9.03;5.43;;;9.20;99.90;;;;;;5039449;28;20183;-86
2022/10/15 04:27:12;;;;;;;11.77;5.00;;;9.30;99.90;;;;;;5053426;28;20537;-86
2022/10/15 04:29:37;;;;;;;8.40;5.60;;;9.20;99.90;;;;;;5039837;28;20215;-85
2022/10/15 04:32:03;;;;;;;9.70;4.73;;;9.30;99.90;;;;;;5038272;28;20231;-86
2022/10/15 04:34:29;;;;;;;11.63;5.30;;;9.30;99.90;;;;;;5036527;28;20237;-86
2022/10/15 04:36:55;;;;;;;7.73;5.20;;;9.30;99.90;;;;;;5038773;28;20179;-87
2022/10/15 04:39:20;;;;;;;14.10;6.27;;;9.30;99.90;;;;;;5053607;28;20270;-87
2022/10/15 04:41:46;;;;;;;7.60;4.97;;;9.30;99.90;;;;;;5051789;28;20206;-86
2022/10/15 04:44:12;;;;;;;15.80;7.40;;;9.20;99.90;;;;;;5035927;28;20188;-86
2022/10/15 04:46:37;;;;;;;13.27;6.17;;;9.10;99.90;;;;;;5071523;28;20187;-87
2022/10/15 04:49:03;;;;;;;12.47;6.17;;;9.30;99.90;;;;;;5058282;28;20191;-87
2022/10/15 04:51:29;;;;;;;11.67;5.07;;;9.30;99.90;;;;;;5036927;28;20199;-86
2022/10/15 04:53:54;;;;;;;7.57;5.03;;;9.30;99.90;;;;;;5063681;28;20272;-87
2022/10/15 04:56:21;;;;;;;10.03;5.40;;;9.20;99.90;;;;;;5039278;28;20199;-86
2022/10/15 04:58:48;;;;;;;10.90;5.23;;;9.20;99.90;;;;;;5073999;28;20187;-86
2022/10/15 05:01:18;;;;;;;12.90;5.90;;;9.20;99.90;;;;;;5054939;28;20183;-86
2022/10/15 05:03:45;;;;;;;9.43;5.47;;;9.20;99.90;;;;;;5073673;28;20183;-86
2022/10/15 05:06:16;;;;;;;13.93;7.57;;;9.20;99.90;;;;;;5037846;28;20233;-86
2022/10/15 05:08:43;;;;;;;10.97;5.73;;;9.20;99.90;;;;;;5068656;28;20175;-87
2022/10/15 05:11:20;;;;;;;12.27;5.97;;;9.20;99.90;;;;;;5034029;28;20225;-88
2022/10/15 05:13:47;;;;;;;14.83;6.70;;;9.20;99.90;;;;;;5055145;28;20210;-86
2022/10/15 05:16:21;;;;;;;15.33;5.63;;;9.20;99.90;;;;;;5032509;28;20719;-88
2022/10/15 05:18:53;;;;;;;9.20;5.00;;;9.20;99.90;;;;;;5061927;28;20259;-87
2022/10/15 05:21:19;;;;;;;8.30;4.30;;;9.20;99.90;;;;;;5047097;28;20179;-88
2022/10/15 05:23:46;;;;;;;9.97;4.93;;;9.30;99.90;;;;;;5027514;28;20196;-87
2022/10/15 05:26:14;;;;;;;11.93;5.10;;;9.30;99.90;;;;;;5064580;28;20208;-86
2022/10/15 05:28:40;;;;;;;12.20;5.77;;;9.30;99.90;;;;;;5054158;28;20186;-87
2022/10/15 05:31:10;;;;;;;8.73;4.83;;;9.30;99.90;;;;;;5057496;28;20187;-88
2022/10/15 05:33:37;;;;;;;7.43;4.00;;;9.30;99.90;;;;;;5050168;28;20207;-88
2022/10/15 05:36:13;;;;;;;11.73;5.07;;;9.30;99.90;;;;;;5053422;28;20191;-87
2022/10/15 05:38:42;;;;;;;8.47;4.77;;;9.30;99.90;;;;;;5055142;28;20175;-89
2022/10/15 05:41:08;;;;;;;7.73;3.83;;;9.30;99.90;;;;;;5038607;28;20190;-87
2022/10/15 05:43:38;;;;;;;9.53;4.63;;;9.40;99.90;;;;;;5038509;28;20179;-88
2022/10/15 05:46:04;;;;;;;9.10;4.00;;;9.40;99.90;;;;;;5073038;28;20179;-87
2022/10/15 05:48:30;;;;;;;9.33;6.00;;;;;;;;;;5039983;28;20276;-87
2022/10/15 05:51:05;;;;;;;10.73;4.90;;;9.40;99.90;;;;;;5057813;28;20265;-88
2022/10/15 05:53:31;;;;;;;16.23;5.37;;;;;;;;;;5054817;28;20200;-87
2022/10/15 05:56:02;;;;;;;12.97;5.80;;;9.40;99.90;;;;;;5077190;28;20183;-87
2022/10/15 05:58:28;;;;;;;11.90;6.07;;;9.70;99.90;;;;;;5056063;28;20171;-86
2022/10/15 06:00:56;;;;;;;11.53;6.80;;;9.40;99.90;;;;;;5072752;28;20262;-86
2022/10/15 06:03:22;;;;;;;10.47;5.17;;;9.50;99.90;;;;;;5053611;28;20190;-86
2022/10/15 06:05:51;;;;;;;12.43;6.30;;;;;;;;;;5053367;28;20619;-88
2022/10/15 06:08:19;;;;;;;10.17;5.43;;;;;;;;;;5051455;28;20259;-86
2022/10/15 06:10:48;;;;;;;10.70;6.07;;;9.80;99.90;;;;;;5052663;28;20187;-88
2022/10/15 06:13:14;;;;;;;7.20;4.63;;;9.70;99.90;;;;;;5051703;28;20206;-88
2022/10/15 06:15:42;;;;;;;11.27;5.00;;;9.80;99.90;;;;;;5071163;28;20190;-87
2022/10/15 06:18:17;;;;;;;11.27;6.10;;;10.10;99.90;;;;;;5053497;28;20281;-87
2022/10/15 06:20:44;;;;;;;9.47;5.20;;;9.90;99.90;;;;;;5051945;28;20627;-87
2022/10/15 06:23:10;;;;;;;10.87;6.13;;;9.80;99.90;;;;;;5042259;28;20270;-88
2022/10/15 06:25:40;;;;;;;17.52;6.18;;;9.90;99.90;;;;;;5067408;28;20183;-86
2022/10/15 06:28:08;;;;;;;15.57;6.00;;;9.90;99.90;;;;;;5032001;28;20709;-87
2022/10/15 06:30:34;;;;;;;15.93;7.60;;;;;;;;;;5058798;28;20186;-88
2022/10/15 06:33:03;;;;;;;18.37;7.13;;;6.90;99.90;;;;;;5082102;28;20230;-87
2022/10/15 06:35:35;;;;;;;18.70;8.53;;;10.00;99.90;;;;;;5080472;28;20195;-87
2022/10/15 06:38:02;;;;;;;20.07;8.07;;;9.90;99.90;;;;;;5026987;28;20183;-87
2022/10/15 06:40:28;;;;;;;14.82;8.68;;;10.00;99.90;;;;;;5056796;28;20214;-87
2022/10/15 06:42:54;;;;;;;14.57;7.90;;;10.00;99.90;;;;;;5039235;28;20187;-86
2022/10/15 06:45:20;;;;;;;12.63;7.50;;;10.00;99.90;;;;;;5057156;28;20211;-86
2022/10/15 06:47:48;;;;;;;13.43;7.00;;;10.10;99.90;;;;;;5033507;28;20303;-87
2022/10/15 06:50:14;;;;;;;11.90;5.78;;;10.10;99.90;;;;;;5055681;28;20179;-87
2022/10/15 06:52:40;;;;;;;11.98;5.50;;;10.20;99.90;;;;;;5040965;28;20703;-88
2022/10/15 06:55:06;;;;;;;8.55;6.07;;;10.30;99.90;;;;;;5018147;28;20187;-87
2022/10/15 06:57:31;;;;;;;11.32;6.13;;;10.30;99.90;;;;;;5053448;28;20187;-88
2022/10/15 06:59:57;;;;;;;9.75;5.50;;;10.40;99.90;;;;;;5041033;28;20190;-87
2022/10/15 07:02:23;;;;;;;9.20;5.78;;;10.50;99.90;;;;;;5015817;28;20197;-88
2022/10/15 07:04:49;;;;;;;18.95;6.65;;;10.80;99.90;;;;;;5050998;28;20192;-87
2022/10/15 07:07:15;;;;;;;13.43;5.80;;;11.00;99.90;;;;;;5034148;28;20184;-86
2022/10/15 07:09:40;;;;;;;12.32;4.80;;;11.20;99.90;;;;;;5055849;28;20193;-88
2022/10/15 07:12:09;;;;;;;10.15;5.90;;;11.40;99.90;;;;;;5056733;28;20477;-88
2022/10/15 07:14:35;;;;;;;13.93;4.78;;;10.80;99.90;;;;;;5034257;28;21036;-90
2022/10/15 07:17:00;;;;;;;10.07;4.03;;;11.70;99.90;;;;;;5066677;28;20263;-87
2022/10/15 07:19:27;;;;;;;8.50;4.57;;;;;;;;;;5054602;28;20523;-87
2022/10/15 07:21:53;;;;;;;8.98;4.63;;;;;;;;;;5053581;28;20647;-86
2022/10/15 07:24:21;;;;;;;9.02;4.80;;;12.10;99.90;;;;;;5068330;28;20187;-87
2022/10/15 07:26:47;;;;;;;9.65;4.90;;;12.30;99.90;;;;;;5027906;28;20649;-87
2022/10/15 07:29:13;;;;;;;8.10;4.10;;;;;;;;;;5054782;28;20195;-88
2022/10/15 07:31:38;;;;;;;6.40;4.22;;;12.70;99.90;;;;;;5069571;28;20198;-90
2022/10/15 07:34:05;;;;;;;9.27;4.53;;;12.50;99.90;;;;;;5033847;28;20655;-88
2022/10/15 07:36:33;;;;;;;11.07;4.80;;;12.60;99.90;;;;;;5049344;28;20329;-88
2022/10/15 07:38:59;;;;;;;7.25;4.38;;;12.60;99.90;;;;;;5038247;28;20218;-88
2022/10/15 07:44:46;;;;;;;9.60;3.50;;;12.70;99.90;;;;;;5288494;22;20254;-89
2022/10/15 07:47:13;;;;;;;7.90;5.07;;;;;;;;;;5019152;28;20180;-86
2022/10/15 07:49:38;;;;;;;6.95;4.20;;;12.80;99.90;;;;;;5029185;28;20652;-88
2022/10/15 07:52:04;;;;;;;10.55;4.50;;;12.80;99.90;;;;;;5028334;28;20198;-87
2022/10/15 07:54:32;;;;;;;7.30;3.95;;;12.90;99.90;;;;;;5033229;28;20275;-87
2022/10/15 07:56:57;;;;;;;5.05;3.05;;;12.90;99.90;;;;;;5033893;28;20271;-88
2022/10/15 07:59:23;;;;;;;7.00;4.53;;;13.00;99.90;;;;;;5033964;28;20290;-87
2022/10/15 08:01:50;;;;;;;7.18;3.70;;;13.10;99.90;;;;;;5012989;28;20736;-85
2022/10/15 08:04:16;;;;;;;7.65;4.47;;;13.20;99.90;;;;;;5021362;28;20202;-87
2022/10/15 08:06:42;;;;;;;8.88;4.20;;;13.30;99.90;;;;;;5054205;28;20186;-88
2022/10/15 08:09:07;;;;;;;8.20;4.45;;;13.40;99.90;;;;;;5033077;28;20607;-86
2022/10/15 08:11:33;;;;;;;7.78;4.20;;;13.40;99.90;;;;;;5046207;28;20184;-86
2022/10/15 08:13:59;;;;;;;14.32;5.07;;;13.50;99.90;;;;;;5021459;28;20575;-88
2022/10/15 08:16:25;;;;;;;8.48;4.03;;;13.60;99.90;;;;;;5017476;28;20196;-89
2022/10/15 08:18:51;;;;;;;6.57;4.43;;;13.70;99.90;;;;;;5050367;28;20195;-87
2022/10/15 08:21:17;;;;;;;7.13;4.35;;;;;;;;;;5019246;28;20184;-86
2022/10/15 08:23:43;;;;;;;8.57;4.60;;;13.90;99.90;;;;;;5033460;28;20234;-87
2022/10/15 08:26:11;;;;;;;7.00;4.18;;;13.90;99.90;;;;;;5055211;28;20172;-89
2022/10/15 08:28:39;;;;;;;10.80;4.60;;;14.00;99.90;;;;;;5036866;28;20184;-89
2022/10/15 08:31:18;;;;;;;9.90;4.78;;;14.10;99.90;;;;;;5039512;28;20219;-89
2022/10/15 08:33:46;;;;;;;9.73;4.43;;;13.80;99.90;;;;;;5025061;28;20238;-86
2022/10/15 08:36:12;;;;;;;9.18;5.07;;;14.40;99.90;;;;;;5054391;28;20179;-87
2022/10/15 08:38:38;;;;;;;9.10;4.55;;;;;;;;;;5041530;28;20191;-88
2022/10/15 08:41:21;;;;;;;7.07;4.50;;;14.40;99.90;;;;;;5035934;28;20628;-87
2022/10/15 08:43:50;;;;;;;8.50;4.40;;;14.50;99.90;;;;;;5035906;28;20191;-87
2022/10/15 08:46:31;;;;;;;10.75;4.40;;;14.70;99.90;;;;;;5037716;28;20321;-88
2022/10/15 08:48:59;;;;;;;8.18;4.18;;;14.50;99.90;;;;;;5061403;28;20181;-88
2022/10/15 08:51:30;;;;;;;10.48;4.95;;;14.50;99.90;;;;;;5019715;28;20286;-88
2022/10/15 08:54:02;;;;;;;9.35;5.22;;;14.60;99.90;;;;;;5054385;28;20227;-90
2022/10/15 08:56:41;;;;;;;8.52;4.57;;;14.70;99.90;;;;;;5039952;28;20645;-90
2022/10/15 08:59:27;;;;;;;11.10;5.05;;;14.80;99.90;;;;;;5038084;28;20190;-89
2022/10/15 09:02:10;;;;;;;7.25;4.15;;;13.20;99.90;;;;;;5039516;28;20187;-89
2022/10/15 09:04:52;;;;;;;8.55;4.70;;;15.20;99.90;;;;;;5051216;28;20180;-91
2022/10/15 09:07:42;;;;;;;8.40;4.75;;;14.90;99.90;;;;;;5054924;28;20696;-88
2022/10/15 09:10:32;;;;;;;9.68;4.70;;;14.90;99.90;;;;;;5043018;28;20189;-89
2022/10/15 09:13:22;;;;;;;9.77;4.85;;;15.60;99.90;;;;;;5017170;28;20215;-89
2022/10/15 09:15:57;;;;;;;13.77;5.22;;;15.00;99.90;;;;;;5056664;28;20187;-89
2022/10/15 09:18:26;;;;;;;9.90;4.72;;;15.00;99.90;;;;;;5039916;28;20191;-90
2022/10/15 09:20:58;;;;;;;8.13;4.65;;;15.10;99.90;;;;;;5060739;28;20718;-90
2022/10/15 09:23:29;;;;;;;11.57;4.68;;;15.30;99.90;;;;;;5061104;28;20290;-88
2022/10/15 09:26:21;;;;;;;8.15;4.20;;;15.00;99.90;;;;;;5047562;28;20550;-89
2022/10/15 09:28:55;;;;;;;10.77;6.00;;;15.20;99.90;;;;;;5036603;28;20186;-88
2022/10/15 09:31:28;;;;;;;7.88;4.40;;;15.20;99.90;;;;;;5039764;28;20183;-87
2022/10/15 09:34:04;;;;;;;10.63;4.70;;;15.20;99.90;;;;;;5036444;28;20206;-86
2022/10/15 09:36:35;;;;;;;10.43;6.57;;;15.30;99.90;;;;;;5034670;28;20591;-86
2022/10/15 09:39:06;;;;;;;13.18;6.10;;;15.40;99.90;;;;;;5057038;28;20709;-87
2022/10/15 09:41:41;;;;;;;10.82;5.53;;;15.60;99.90;;;;;;5044117;28;20191;-89
2022/10/15 09:44:12;;;;;;;11.05;6.00;;;15.60;99.90;;;;;;5046256;28;20187;-91
2022/10/15 09:46:49;;;;;;;9.43;5.82;;;15.60;99.90;;;;;;5041658;28;20561;-90
2022/10/15 09:49:26;;;;;;;11.60;5.20;;;15.40;99.90;;;;;;5067367;28;20218;-88
2022/10/15 09:52:00;;;;;;;12.88;5.05;;;15.40;99.90;;;;;;5052498;28;20188;-90
2022/10/15 09:54:43;;;;;;;10.05;4.68;;;15.30;99.90;;;;;;5036297;28;20199;-88
2022/10/15 09:57:11;;;;;;;8.48;5.10;;;15.50;99.90;;;;;;5053405;28;20187;-89
2022/10/15 09:59:37;;;;;;;8.88;5.00;;;15.80;99.90;;;;;;5036824;28;20179;-87
2022/10/15 10:02:14;;;;;;;10.75;4.80;;;16.00;99.90;;;;;;5031015;28;20183;-86
2022/10/15 10:04:40;;;;;;;11.40;5.38;;;16.20;99.90;;;;;;5019133;28;20184;-88
2022/10/15 10:07:07;;;;;;;10.52;5.07;;;16.40;99.90;;;;;;5032171;28;20180;-87
2022/10/15 10:09:47;;;;;;;10.85;5.55;;;16.60;99.90;;;;;;5053599;28;20237;-89
2022/10/15 10:12:20;;;;;;;11.20;5.30;;;16.70;99.90;;;;;;5054131;28;20274;-89
2022/10/15 10:14:54;;;;;;;8.20;4.70;;;16.90;99.90;;;;;;5036851;28;20230;-91
2022/10/15 10:17:22;;;;;;;11.77;4.95;;;17.10;99.90;;;;;;5039515;28;20188;-91
2022/10/15 10:20:03;;;;;;;9.23;4.85;;;;;;;;;;5036533;28;20203;-91
2022/10/15 10:22:45;;;;;;;9.82;5.40;;;17.40;99.90;;;;;;5043815;28;20238;-90
2022/10/15 10:25:31;;;;;;;8.75;4.43;;;;;;;;;;5055275;28;20218;-88
2022/10/15 10:28:11;;;;;;;12.75;5.40;;;17.30;99.90;;;;;;5052233;28;20176;-88
2022/10/15 10:30:55;;;;;;;10.18;5.32;;;;;;;;;;5041541;28;20179;-89
2022/10/15 10:33:46;;;;;;;10.18;5.50;;;17.40;99.90;;;;;;5052955;28;20664;-89
2022/10/15 10:36:30;;;;;;;11.93;5.15;;;17.60;99.90;;;;;;5042222;28;20191;-90
2022/10/15 10:39:04;;;;;;;12.15;6.07;;;;;;;;;;5072193;28;20273;-86
2022/10/15 10:41:52;;;;;;;14.57;6.60;;;;;;;;;;5043669;28;20548;-91
2022/10/15 10:55:40;;;;;;;14.02;5.63;;;17.80;99.90;;;;;;5114504;27;20341;-91
2022/10/15 11:01:00;;;;;;;7.68;4.70;;;;;;;;;;5105737;28;20262;-92
2022/10/15 11:03:53;;;;;;;;;;;;;;;;;;;;;
2022/10/15 11:06:30;;;;;;;;;;;;;;;;;;;;;
2022/10/15 11:09:04;;;;;;;9.48;5.53;;;;;;;;;;5111444;28;20638;-92
2022/10/15 11:11:48;;;;;;;10.15;4.88;;;17.90;99.90;;;;;;5092170;28;20178;-91
2022/10/15 11:14:26;;;;;;;9.60;5.00;;;;;;;;;;5110116;28;20190;-90
2022/10/15 11:17:03;;;;;;;11.55;5.30;;;17.90;99.90;;;;;;5091866;28;20221;-93
2022/10/15 11:19:42;;;;;;;9.38;4.72;;;;;;;;;;5093117;28;20173;-91
2022/10/15 11:22:08;;;;;;;13.43;5.32;;;;;;;;;;5087568;28;20205;-92
2022/10/15 11:24:49;;;;;;;10.07;5.57;;;;;;;;;;5090208;28;20253;-96
2022/10/15 11:27:21;;;;;;;7.93;5.13;;;18.30;99.90;;;;;;5091210;28;20178;-89
2022/10/15 11:30:13;;;;;;;14.57;4.85;;;18.40;99.90;;;;;;5087969;28;20223;-89
2022/10/15 11:33:04;;;;;;;10.73;5.55;;;18.40;99.90;;;;;;5052195;28;20521;-89
2022/10/15 11:35:30;;;;;;;11.35;5.55;;;;;;;;;;5101978;28;20573;-89
2022/10/15 11:38:43;;;;;;;11.65;5.38;;;18.50;99.90;;;;;;5091809;28;20197;-89
2022/10/15 11:41:17;;;;;;;11.50;5.38;;;18.50;99.90;;;;;;5078551;28;20272;-89
2022/10/15 11:44:13;;;;;;;8.90;5.30;;;18.50;99.90;;;;;;5111745;28;20265;-91
2022/10/15 11:47:02;;;;;;;7.75;4.60;;;18.80;99.90;;;;;;5106141;28;20180;-93
2022/10/15 11:49:43;;;;;;;10.52;5.55;;;18.30;99.90;;;;;;5082997;28;20201;-91
2022/10/15 11:52:15;;;;;;;11.63;6.22;;;19.30;99.90;;;;;;5074565;28;20193;-90
2022/10/15 11:54:46;;;;;;;12.95;5.72;;;18.50;99.90;;;;;;5066944;28;20266;-90
2022/10/15 11:57:15;;;;;;;9.57;5.03;;;18.90;99.90;;;;;;5064229;28;20179;-90
2022/10/15 12:00:12;;;;;;;9.80;4.85;;;19.20;99.90;;;;;;5066219;28;20171;-91
2022/10/15 12:02:38;;;;;;;11.43;4.93;;;18.80;99.90;;;;;;5064158;28;20176;-91
2022/10/15 12:05:14;;;;;;;5.47;4.45;;;18.90;99.90;;;;;;5062252;28;20637;-91
2022/10/15 12:07:46;;;;;;;6.85;4.40;;;18.80;99.90;;;;;;5055702;28;20222;-91
2022/10/15 12:10:11;;;;;;;8.55;4.20;;;18.80;99.90;;;;;;5055104;28;20199;-91
2022/10/15 12:13:09;;;;;;;5.57;3.83;;;18.90;99.90;;;;;;5054599;28;20210;-92
2022/10/15 12:15:41;;;;;;;9.73;3.97;;;19.00;99.90;;;;;;5021118;28;20199;-92
2022/10/15 12:18:19;;;;;;;7.38;4.22;;;18.80;99.90;;;;;;5056019;28;20620;-89
2022/10/15 12:20:45;;;;;;;11.23;4.65;;;18.40;99.90;;;;;;5051383;28;20267;-91
2022/10/15 12:23:35;;;;;;;8.25;4.32;;;18.30;99.90;;;;;;5054697;28;20188;-92
2022/10/15 12:26:01;;;;;;;8.65;4.90;;;;;;;;;;5067721;28;20187;-92
2022/10/15 12:28:30;;;;;;;7.30;4.18;;;18.50;99.90;;;;;;5071755;28;20180;-91
2022/10/15 12:31:05;;;;;;;7.15;4.55;;;18.30;99.90;;;;;;5069894;28;20171;-92
2022/10/15 12:33:38;;;;;;;13.45;4.93;;;18.70;99.90;;;;;;5064148;28;20222;-91
2022/10/15 12:36:27;;;;;;;8.35;4.97;;;18.70;99.90;;;;;;5057406;28;20183;-92
2022/10/15 12:38:59;;;;;;;8.25;4.88;;;18.70;99.90;;;;;;5052542;28;20262;-92
2022/10/15 12:41:42;;;;;;;8.90;4.97;;;18.60;99.90;;;;;;5050325;28;20317;-91
2022/10/15 12:44:30;;;;;;;8.13;4.20;;;18.40;99.90;;;;;;5054235;28;20179;-90
2022/10/15 12:46:57;;;;;;;6.85;4.25;;;18.10;99.90;;;;;;5053850;28;20175;-89
2022/10/15 12:49:25;;;;;;;12.55;5.47;;;18.10;99.90;;;;;;5053470;28;20187;-91
2022/10/15 12:51:57;;;;;;;7.28;4.30;;;17.90;99.90;;;;;;5054262;28;20321;-92
2022/10/15 12:54:41;;;;;;;5.68;3.60;;;17.80;99.90;;;;;;5065447;28;20231;-91
2022/10/15 12:57:45;;;;;;;6.68;4.30;;;17.90;99.90;;;;;;5072712;28;20167;-91
2022/10/15 13:00:41;;;;;;;10.57;4.95;;;17.50;99.90;;;;;;4976797;28;20289;-88
2022/10/15 13:03:40;;;;;;;9.82;5.13;;;17.70;99.90;;;;;;4993047;28;20186;-90
2022/10/15 13:06:17;;;;;;;7.53;4.80;;;18.10;99.90;;;;;;5083046;28;20251;-92
2022/10/15 13:08:48;;;;;;;8.68;4.85;;;18.40;99.90;;;;;;5095228;28;20186;-91
2022/10/15 13:11:28;;;;;;;9.00;4.63;;;18.90;99.90;;;;;;5075533;28;20175;-92
2022/10/15 13:14:00;;;;;;;8.95;5.07;;;19.40;99.90;;;;;;5073264;28;20203;-92
2022/10/15 13:16:27;;;;;;;7.45;4.35;;;19.70;99.90;;;;;;5072489;28;20248;-91
2022/10/15 13:18:56;;;;;;;9.10;4.93;;;20.70;99.90;;;;;;5073377;28;20167;-91
2022/10/15 13:21:22;;;;;;;10.30;5.07;;;;;;;;;;5075534;28;20183;-93
2022/10/15 13:23:50;;;;;;;12.18;6.68;;;21.60;99.90;;;;;;5076798;28;20179;-93
2022/10/15 13:26:29;;;;;;;20.95;8.48;;;22.00;99.90;;;;;;5055872;28;20620;-90
2022/10/15 13:28:57;;;;;;;16.58;7.63;;;21.80;99.90;;;;;;5072885;28;20189;-91
2022/10/15 13:31:27;;;;;;;12.23;6.82;;;21.40;99.90;;;;;;5040372;28;20205;-92
2022/10/15 13:33:57;;;;;;;13.60;6.82;;;20.50;99.90;;;;;;5072558;28;20202;-90
2022/10/15 13:36:30;;;;;;;14.65;7.55;;;20.70;99.90;;;;;;5073530;28;20632;-94
2022/10/15 13:38:59;;;;;;;13.30;7.28;;;20.20;99.90;;;;;;5074053;28;20545;-91